Time;durP1;ratioP1;P1;durP2;ratioP2;P2;SDS_P1;SDS_P2;PMS_P1;PMS_P2;Temp;Humidity;BMP_temperature;BMP_pressure;BME280_temperature;BME280_humidity;BME280_pressure;Samples;Min_cycle;Max_cycle;Signal;HPM_P1;HPM_P2
2023/12/27 00:01:53;;;;;;;15.98;4.32;;;;;;;;;;5070782;28;20024;-73
2023/12/27 00:04:20;;;;;;;16.17;4.28;;;;;;;;;;5065975;28;20086;-73
2023/12/27 00:06:46;;;;;;;9.38;3.92;;;;;;;;;;5070327;28;20036;-73
2023/12/27 00:09:12;;;;;;;12.50;4.55;;;;;;;;;;5071553;28;20034;-74
2023/12/27 00:11:38;;;;;;;12.85;4.60;;;;;;;;;;5070945;28;20041;-74
2023/12/27 00:14:04;;;;;;;9.68;4.10;;;;;;;;;;5071848;28;20033;-73
2023/12/27 00:16:30;;;;;;;13.20;4.70;;;;;;;;;;5071593;28;20036;-73
2023/12/27 00:18:56;;;;;;;11.18;4.50;;;;;;;;;;5070188;28;20107;-73
2023/12/27 00:21:22;;;;;;;17.30;4.88;;;;;;;;;;5057073;28;20044;-73
2023/12/27 00:23:48;;;;;;;12.07;4.70;;;;;;;;;;5071467;28;20097;-73
2023/12/27 00:26:14;;;;;;;19.98;5.63;;;;;;;;;;5071328;28;20529;-73
2023/12/27 00:28:40;;;;;;;9.88;4.60;;;;;;;;;;5070951;28;20044;-73
2023/12/27 00:31:06;;;;;;;13.95;5.07;;;;;;;;;;5063992;28;20044;-72
2023/12/27 00:33:32;;;;;;;11.95;5.18;;;;;;;;;;5070724;28;20040;-72
2023/12/27 00:35:58;;;;;;;10.40;4.90;;;;;;;;;;5069665;28;20136;-73
2023/12/27 00:38:24;;;;;;;17.65;5.78;;;;;;;;;;5070791;28;20032;-73
2023/12/27 00:40:50;;;;;;;14.85;4.90;;;;;;;;;;5070365;28;20493;-72
2023/12/27 00:43:16;;;;;;;11.23;5.45;;;;;;;;;;5056646;28;20049;-72
2023/12/27 00:45:42;;;;;;;10.18;4.63;;;;;;;;;;5070239;28;20093;-73
2023/12/27 00:48:08;;;;;;;11.07;5.00;;;;;;;;;;5070650;28;20482;-72
2023/12/27 00:50:34;;;;;;;11.18;4.70;;;;;;;;;;5070468;28;20044;-73
2023/12/27 00:53:00;;;;;;;12.07;4.57;;;;;;;;;;5051187;28;20505;-73
2023/12/27 00:55:26;;;;;;;9.00;4.47;;;;;;;;;;5070179;28;20036;-73
2023/12/27 00:57:52;;;;;;;10.20;4.82;;;;;;;;;;5069942;28;20474;-73
2023/12/27 01:00:18;;;;;;;6.28;3.63;;;;;;;;;;5055236;28;20036;-73
2023/12/27 01:02:44;;;;;;;9.23;3.40;;;;;;;;;;5041340;28;20051;-73
2023/12/27 01:05:10;;;;;;;6.40;3.38;;;;;;;;;;5070731;28;20036;-73
2023/12/27 01:07:36;;;;;;;8.15;3.72;;;;;;;;;;5068989;28;20273;-73
2023/12/27 01:10:03;;;;;;;9.40;4.20;;;;;;;;;;5066042;28;20055;-73
2023/12/27 01:12:29;;;;;;;8.38;3.60;;;;;;;;;;5068637;28;20043;-73
2023/12/27 01:14:55;;;;;;;8.35;4.90;;;;;;;;;;5071044;28;21343;-73
2023/12/27 01:17:21;;;;;;;8.13;4.15;;;;;;;;;;5057934;28;20037;-73
2023/12/27 01:19:47;;;;;;;9.32;3.85;;;;;;;;;;5069839;28;20485;-73
2023/12/27 01:22:13;;;;;;;7.88;4.15;;;;;;;;;;5070405;28;20042;-73
2023/12/27 01:24:39;;;;;;;7.25;4.43;;;;;;;;;;5070167;28;20066;-73
2023/12/27 01:27:05;;;;;;;10.07;4.35;;;;;;;;;;5070676;28;20182;-72
2023/12/27 01:29:31;;;;;;;7.18;3.90;;;;;;;;;;5069299;28;20808;-72
2023/12/27 01:31:57;;;;;;;7.93;3.72;;;;;;;;;;5071093;28;20041;-72
2023/12/27 01:34:23;;;;;;;7.55;4.15;;;;;;;;;;5070080;28;20028;-73
2023/12/27 01:36:49;;;;;;;7.75;3.67;;;;;;;;;;5069081;28;20051;-73
2023/12/27 01:39:15;;;;;;;9.73;4.30;;;;;;;;;;5070508;28;20044;-73
2023/12/27 01:41:41;;;;;;;10.77;4.35;;;;;;;;;;5069133;28;20097;-73
2023/12/27 01:44:07;;;;;;;8.23;3.88;;;;;;;;;;5069625;28;20064;-73
2023/12/27 01:46:33;;;;;;;10.57;4.53;;;;;;;;;;5070893;28;20357;-73
2023/12/27 01:48:59;;;;;;;8.82;3.90;;;;;;;;;;5073139;28;20072;-73
2023/12/27 01:51:26;;;;;;;10.85;4.20;;;;;;;;;;5073723;28;20040;-73
2023/12/27 01:53:52;;;;;;;6.05;3.72;;;;;;;;;;5072746;28;20036;-73
2023/12/27 01:56:18;;;;;;;7.93;3.30;;;;;;;;;;5073074;28;20047;-73
2023/12/27 01:58:44;;;;;;;8.68;4.22;;;;;;;;;;5073728;28;20074;-73
2023/12/27 02:01:10;;;;;;;11.85;5.70;;;;;;;;;;5059916;28;20119;-73
2023/12/27 02:03:36;;;;;;;11.27;4.63;;;;;;;;;;5071701;28;20091;-73
2023/12/27 02:06:02;;;;;;;12.70;5.45;;;;;;;;;;5070853;28;20080;-73
2023/12/27 02:08:29;;;;;;;18.30;3.78;;;;;;;;;;5070877;28;20037;-73
2023/12/27 02:10:55;;;;;;;11.68;4.22;;;;;;;;;;5073518;28;20040;-73
2023/12/27 02:13:21;;;;;;;10.52;4.30;;;;;;;;;;5074067;28;20060;-73
2023/12/27 02:15:47;;;;;;;8.20;4.03;;;;;;;;;;5073160;28;20036;-73
2023/12/27 02:18:13;;;;;;;49.88;5.30;;;;;;;;;;5070734;28;20037;-73
2023/12/27 02:20:40;;;;;;;15.50;3.30;;;;;;;;;;5073340;28;20501;-73
2023/12/27 02:23:07;;;;;;;7.82;3.03;;;;;;;;;;5072716;28;20032;-73
2023/12/27 02:25:33;;;;;;;4.43;2.35;;;;;;;;;;5073539;28;20075;-72
2023/12/27 02:27:59;;;;;;;6.85;2.50;;;;;;;;;;5073447;28;20102;-72
2023/12/27 02:30:25;;;;;;;5.78;2.13;;;;;;;;;;5072696;28;20190;-73
2023/12/27 02:32:51;;;;;;;4.50;2.30;;;;;;;;;;5050415;28;20036;-73
2023/12/27 02:35:18;;;;;;;11.90;2.80;;;;;;;;;;5073142;28;20499;-73
2023/12/27 02:37:44;;;;;;;27.42;3.70;;;;;;;;;;5059819;28;20513;-73
2023/12/27 02:40:10;;;;;;;15.80;2.80;;;;;;;;;;5073181;28;20043;-73
2023/12/27 02:42:37;;;;;;;9.65;2.92;;;;;;;;;;5072795;28;20052;-73
2023/12/27 02:45:04;;;;;;;22.08;3.50;;;;;;;;;;5073158;28;20032;-73
2023/12/27 02:47:30;;;;;;;36.22;3.75;;;;;;;;;;5072731;28;20115;-73
2023/12/27 02:49:56;;;;;;;18.80;3.35;;;;;;;;;;5072505;28;20577;-73
2023/12/27 02:52:21;;;;;;;24.15;3.70;;;;;;;;;;5072778;28;20040;-72
2023/12/27 02:54:47;;;;;;;35.47;4.00;;;;;;;;;;5066675;28;20037;-72
2023/12/27 02:57:13;;;;;;;26.27;2.95;;;;;;;;;;5070989;28;20048;-72
2023/12/27 02:59:39;;;;;;;20.95;2.78;;;;;;;;;;5073064;28;20445;-73
2023/12/27 03:02:06;;;;;;;17.50;2.80;;;;;;;;;;5071847;28;20032;-72
2023/12/27 03:04:32;;;;;;;9.55;2.67;;;;;;;;;;5065688;28;20086;-72
2023/12/27 03:06:57;;;;;;;21.15;2.97;;;;;;;;;;5057439;28;20040;-72
2023/12/27 03:09:24;;;;;;;28.95;3.15;;;;;;;;;;5054922;28;20036;-72
2023/12/27 03:11:51;;;;;;;13.65;2.60;;;;;;;;;;5071324;28;20032;-72
2023/12/27 03:14:17;;;;;;;9.48;3.08;;;;;;;;;;5070087;28;20068;-72
2023/12/27 03:16:42;;;;;;;14.45;3.25;;;;;;;;;;5066589;28;20063;-72
2023/12/27 03:19:08;;;;;;;9.63;3.58;;;;;;;;;;5070284;28;20036;-72
2023/12/27 03:21:34;;;;;;;20.67;3.92;;;;;;;;;;5071042;28;20047;-72
2023/12/27 03:24:00;;;;;;;48.25;5.00;;;;;;;;;;5070640;28;20053;-73
2023/12/27 03:26:26;;;;;;;41.33;4.55;;;;;;;;;;5071756;28;20040;-72
2023/12/27 03:28:52;;;;;;;37.80;4.43;;;;;;;;;;5071858;28;20083;-72
2023/12/27 03:31:18;;;;;;;63.50;5.57;;;;;;;;;;5071798;28;20037;-73
2023/12/27 03:33:44;;;;;;;38.00;4.35;;;;;;;;;;5071134;28;20029;-72
2023/12/27 03:36:10;;;;;;;29.00;4.35;;;;;;;;;;5071208;28;20028;-72
2023/12/27 03:38:36;;;;;;;55.92;5.22;;;;;;;;;;5070979;28;20083;-72
2023/12/27 03:41:02;;;;;;;48.38;4.72;;;;;;;;;;5071998;28;20169;-72
2023/12/27 03:43:28;;;;;;;25.25;4.30;;;;;;;;;;5071093;28;20115;-73
2023/12/27 03:45:54;;;;;;;66.13;5.57;;;;;;;;;;5071789;28;20048;-73
2023/12/27 03:48:21;;;;;;;16.85;3.65;;;;;;;;;;5070924;28;20040;-73
2023/12/27 03:50:48;;;;;;;20.83;3.85;;;;;;;;;;5057511;28;20478;-73
2023/12/27 03:53:13;;;;;;;16.45;3.78;;;;;;;;;;5070656;28;20043;-73
2023/12/27 03:55:42;;;;;;;23.10;4.00;;;;;;;;;;5065729;28;20032;-72
2023/12/27 03:58:08;;;;;;;22.52;3.95;;;;;;;;;;5069826;28;20098;-72
2023/12/27 04:00:34;;;;;;;13.85;3.70;;;;;;;;;;5072110;28;20460;-72
2023/12/27 04:03:00;;;;;;;18.80;3.40;;;;;;;;;;5049110;28;20132;-72
2023/12/27 04:05:26;;;;;;;10.63;3.50;;;;;;;;;;5065674;28;20043;-72
2023/12/27 04:07:52;;;;;;;21.95;3.85;;;;;;;;;;5071426;28;20043;-72
2023/12/27 04:10:18;;;;;;;23.95;3.95;;;;;;;;;;5064789;28;20037;-72
2023/12/27 04:12:44;;;;;;;17.90;4.15;;;;;;;;;;5070612;28;20421;-72
2023/12/27 04:15:10;;;;;;;18.50;4.22;;;;;;;;;;5065562;28;20036;-72
2023/12/27 04:17:36;;;;;;;15.63;4.05;;;;;;;;;;5054321;28;20060;-72
2023/12/27 04:20:03;;;;;;;21.80;4.97;;;;;;;;;;5071357;28;20048;-72
2023/12/27 04:22:29;;;;;;;18.33;4.65;;;;;;;;;;5071626;28;20036;-72
2023/12/27 04:24:55;;;;;;;16.20;4.40;;;;;;;;;;5052641;28;20036;-73
2023/12/27 04:27:20;;;;;;;13.73;4.20;;;;;;;;;;5056532;28;20045;-73
2023/12/27 04:29:46;;;;;;;10.43;4.53;;;;;;;;;;5070903;28;20477;-72
2023/12/27 04:32:12;;;;;;;14.07;4.40;;;;;;;;;;5066877;28;20044;-72
2023/12/27 04:34:38;;;;;;;13.30;4.85;;;;;;;;;;5066834;28;20032;-72
2023/12/27 04:37:05;;;;;;;7.82;4.40;;;;;;;;;;5071115;28;20104;-72
2023/12/27 04:39:31;;;;;;;6.85;3.92;;;;;;;;;;5069882;28;20063;-72
2023/12/27 04:41:57;;;;;;;17.25;4.50;;;;;;;;;;5063302;28;20489;-72
2023/12/27 04:44:23;;;;;;;18.73;4.47;;;;;;;;;;5067137;28;20078;-72
2023/12/27 04:46:49;;;;;;;10.77;4.65;;;;;;;;;;5069876;28;20037;-73
2023/12/27 04:49:15;;;;;;;20.90;4.68;;;;;;;;;;5070014;28;20099;-73
2023/12/27 04:51:41;;;;;;;11.00;4.30;;;;;;;;;;5070661;28;20415;-73
2023/12/27 04:54:07;;;;;;;21.50;4.80;;;;;;;;;;5070184;28;20033;-73
2023/12/27 04:56:33;;;;;;;17.77;4.50;;;;;;;;;;5066508;28;20530;-73
2023/12/27 04:58:59;;;;;;;5.88;4.10;;;;;;;;;;5068320;28;20025;-73
2023/12/27 05:01:25;;;;;;;6.97;4.20;;;;;;;;;;5065142;28;20040;-73
2023/12/27 05:03:51;;;;;;;12.20;4.97;;;;;;;;;;5064884;28;20090;-73
2023/12/27 05:06:17;;;;;;;27.77;6.00;;;;;;;;;;5065133;28;20512;-73
2023/12/27 05:08:43;;;;;;;10.73;5.07;;;;;;;;;;5070345;28;20044;-73
2023/12/27 05:11:17;;;;;;;10.68;5.75;;;;;;;;;;5068693;28;20036;-73
2023/12/27 05:13:43;;;;;;;9.93;4.82;;;;;;;;;;5066503;28;20044;-73
2023/12/27 05:16:10;;;;;;;8.65;5.20;;;;;;;;;;5065713;28;20055;-73
2023/12/27 05:18:37;;;;;;;7.25;4.78;;;;;;;;;;5070320;28;20265;-73
2023/12/27 05:21:03;;;;;;;6.88;5.38;;;;;;;;;;5071819;28;20036;-73
2023/12/27 05:23:29;;;;;;;14.80;5.13;;;;;;;;;;5069719;28;20033;-73
2023/12/27 05:25:55;;;;;;;17.00;5.88;;;;;;;;;;5068940;28;20108;-72
2023/12/27 05:28:21;;;;;;;8.02;5.53;;;;;;;;;;5073714;28;20039;-72
2023/12/27 05:30:47;;;;;;;6.95;5.00;;;;;;;;;;5073343;28;20375;-72
2023/12/27 05:33:13;;;;;;;12.38;6.30;;;;;;;;;;5077648;22;20044;-71
2023/12/27 05:35:39;;;;;;;9.55;5.70;;;;;;;;;;5069416;28;20513;-71
2023/12/27 05:38:04;;;;;;;6.85;5.00;;;;;;;;;;5062096;28;20036;-71
2023/12/27 05:40:30;;;;;;;11.57;6.00;;;;;;;;;;5047111;28;20130;-72
2023/12/27 05:42:56;;;;;;;10.65;5.72;;;;;;;;;;5053758;28;20033;-72
2023/12/27 05:45:22;;;;;;;7.72;5.40;;;;;;;;;;5054056;28;20029;-72
2023/12/27 05:47:48;;;;;;;10.50;5.63;;;;;;;;;;5049326;28;20124;-72
2023/12/27 05:50:15;;;;;;;11.73;6.43;;;;;;;;;;5054359;28;20044;-72
2023/12/27 05:52:41;;;;;;;10.27;6.60;;;;;;;;;;5053478;28;20040;-72
2023/12/27 05:55:07;;;;;;;14.77;6.90;;;;;;;;;;5049617;28;20032;-72
2023/12/27 05:57:33;;;;;;;12.25;7.05;;;;;;;;;;5053988;28;20037;-72
2023/12/27 05:59:59;;;;;;;15.63;7.57;;;;;;;;;;5053136;28;20517;-72
2023/12/27 06:02:25;;;;;;;13.57;7.70;;;;;;;;;;5053685;28;20487;-72
2023/12/27 06:04:51;;;;;;;12.07;7.60;;;;;;;;;;5053739;28;20530;-72
2023/12/27 06:07:17;;;;;;;15.68;7.80;;;;;;;;;;5048235;28;20491;-72
2023/12/27 06:09:43;;;;;;;14.07;7.68;;;;;;;;;;5053201;28;20048;-72
2023/12/27 06:12:09;;;;;;;17.80;8.57;;;;;;;;;;5053195;28;20483;-72
2023/12/27 06:14:36;;;;;;;14.38;8.70;;;;;;;;;;5053905;28;20036;-72
2023/12/27 06:17:02;;;;;;;15.98;9.30;;;;;;;;;;5049285;28;20044;-72
2023/12/27 06:19:28;;;;;;;16.75;8.90;;;;;;;;;;5053412;28;20094;-71
2023/12/27 06:21:54;;;;;;;16.60;9.75;;;;;;;;;;5046419;28;20056;-71
2023/12/27 06:24:20;;;;;;;19.58;9.32;;;;;;;;;;5052983;28;20518;-71
2023/12/27 06:26:46;;;;;;;16.70;9.65;;;;;;;;;;5047861;28;20053;-71
2023/12/27 06:29:12;;;;;;;14.98;9.93;;;;;;;;;;5052545;28;20068;-71
2023/12/27 06:31:38;;;;;;;17.83;9.75;;;;;;;;;;5053039;28;20514;-71
2023/12/27 06:34:04;;;;;;;17.95;10.10;;;;;;;;;;5050896;28;20047;-71
2023/12/27 06:36:31;;;;;;;19.15;9.80;;;;;;;;;;5051126;28;20040;-71
2023/12/27 06:38:57;;;;;;;16.95;9.65;;;;;;;;;;5050528;28;20044;-71
2023/12/27 06:41:23;;;;;;;21.13;10.45;;;;;;;;;;5052367;28;20095;-71
2023/12/27 06:43:49;;;;;;;15.05;9.50;;;;;;;;;;5048785;28;20041;-71
2023/12/27 06:46:15;;;;;;;18.65;9.52;;;;;;;;;;5052908;28;20055;-71
2023/12/27 06:48:41;;;;;;;18.70;10.07;;;;;;;;;;5050360;28;20144;-71
2023/12/27 06:51:07;;;;;;;15.50;9.27;;;;;;;;;;5052870;28;20124;-71
2023/12/27 06:53:34;;;;;;;18.15;9.73;;;;;;;;;;5052165;28;20083;-72
2023/12/27 06:56:03;;;;;;;17.80;9.27;;;;;;;;;;5052644;28;20033;-72
2023/12/27 06:58:29;;;;;;;16.67;9.38;;;;;;;;;;5046927;28;20037;-72
2023/12/27 07:00:55;;;;;;;20.55;10.18;;;;;;;;;;5051637;28;20094;-72
2023/12/27 07:03:21;;;;;;;19.40;10.95;;;;;;;;;;5052780;28;20047;-72
2023/12/27 07:05:47;;;;;;;21.17;10.77;;;;;;;;;;5051864;28;20045;-72
2023/12/27 07:08:13;;;;;;;22.90;10.85;;;;;;;;;;5051758;28;20376;-72
2023/12/27 07:10:39;;;;;;;21.33;10.88;;;;;;;;;;5052357;28;20048;-72
2023/12/27 07:13:05;;;;;;;19.92;10.77;;;;;;;;;;5052802;28;20033;-72
2023/12/27 07:15:31;;;;;;;21.02;10.48;;;;;;;;;;5052355;28;20060;-72
2023/12/27 07:17:57;;;;;;;15.57;9.43;;;;;;;;;;5051494;28;20040;-72
2023/12/27 07:20:23;;;;;;;21.95;10.68;;;;;;;;;;5050782;28;20040;-72
2023/12/27 07:22:49;;;;;;;16.58;10.82;;;;;;;;;;5051409;28;20423;-71
2023/12/27 07:25:15;;;;;;;22.40;10.48;;;;;;;;;;5052330;28;20172;-72
2023/12/27 07:27:41;;;;;;;17.70;10.38;;;;;;;;;;5049216;28;20051;-72
2023/12/27 07:30:07;;;;;;;19.38;9.82;;;;;;;;;;5050359;28;20041;-72
2023/12/27 07:32:33;;;;;;;19.80;10.50;;;;;;;;;;5051594;28;20033;-72
2023/12/27 07:34:59;;;;;;;21.92;10.65;;;;;;;;;;5051375;28;20040;-71
2023/12/27 07:37:25;;;;;;;19.05;10.02;;;;;;;;;;5052107;28;20029;-71
2023/12/27 07:39:53;;;;;;;22.27;10.45;;;;;;;;;;5047953;28;20435;-73
2023/12/27 07:42:19;;;;;;;22.60;9.98;;;;;;;;;;5048170;28;20396;-72
2023/12/27 07:44:45;;;;;;;19.50;10.10;;;;;;;;;;5048485;28;20036;-72
2023/12/27 07:47:11;;;;;;;24.63;10.95;;;;;;;;;;5051300;28;20063;-72
2023/12/27 07:49:37;;;;;;;23.58;9.75;;;;;;;;;;5048731;28;20040;-71
2023/12/27 07:52:03;;;;;;;20.48;10.00;;;;;;;;;;5045345;28;20029;-71
2023/12/27 07:54:31;;;;;;;24.85;9.88;;;;;;;;;;5049925;28;20099;-72
2023/12/27 07:56:57;;;;;;;21.73;9.73;;;;;;;;;;5048681;28;20088;-72
2023/12/27 07:59:23;;;;;;;22.77;9.63;;;;;;;;;;5050981;28;20080;-72
2023/12/27 08:01:49;;;;;;;25.15;10.80;;;;;;;;;;5051598;28;20560;-72
2023/12/27 08:04:15;;;;;;;65.63;15.82;;;;;;;;;;5051349;28;20439;-72
2023/12/27 08:06:41;;;;;;;20.30;10.98;;;;;;;;;;5050641;28;20077;-72
2023/12/27 08:09:07;;;;;;;32.22;16.17;;;;;;;;;;5050741;28;20041;-72
2023/12/27 08:11:33;;;;;;;23.00;12.93;;;;;;;;;;5051178;28;20040;-72
2023/12/27 08:13:59;;;;;;;28.10;15.60;;;;;;;;;;5051618;28;20041;-72
2023/12/27 08:16:25;;;;;;;31.25;12.90;;;;;;;;;;5051105;28;20037;-72
2023/12/27 08:18:51;;;;;;;47.05;17.48;;;;;;;;;;5050211;28;20037;-72
2023/12/27 08:21:17;;;;;;;128.45;21.58;;;;;;;;;;5050291;28;20037;-72
2023/12/27 08:23:43;;;;;;;44.58;14.93;;;;;;;;;;5052016;28;20044;-72
2023/12/27 08:26:09;;;;;;;18.80;9.85;;;;;;;;;;5050759;28;20033;-72
2023/12/27 08:28:35;;;;;;;49.35;14.32;;;;;;;;;;5051272;28;20055;-72
2023/12/27 08:31:01;;;;;;;27.88;12.52;;;;;;;;;;5049953;28;20051;-72
2023/12/27 08:33:30;;;;;;;19.90;9.95;;;;;;;;;;5051527;28;20491;-72
2023/12/27 08:35:56;;;;;;;18.23;9.80;;;;;;;;;;5047250;28;20441;-72
2023/12/27 08:38:23;;;;;;;24.08;10.23;;;;;;;;;;5050781;28;20040;-72
2023/12/27 08:40:49;;;;;;;20.52;10.38;;;;;;;;;;5050317;28;20399;-72
2023/12/27 08:43:15;;;;;;;18.23;9.23;;;;;;;;;;5051042;28;20037;-72
2023/12/27 08:45:41;;;;;;;19.95;9.57;;;;;;;;;;5050630;28;20033;-72
2023/12/27 08:48:07;;;;;;;21.23;10.02;;;;;;;;;;5050895;28;20047;-72
2023/12/27 08:50:34;;;;;;;20.98;10.93;;;;;;;;;;5049018;28;20387;-72
2023/12/27 08:53:00;;;;;;;21.80;10.95;;;;;;;;;;5044506;28;20048;-72
2023/12/27 08:55:26;;;;;;;17.73;10.25;;;;;;;;;;5049253;28;20032;-72
2023/12/27 08:57:52;;;;;;;25.02;11.07;;;;;;;;;;5049272;28;20403;-72
2023/12/27 09:00:19;;;;;;;22.70;11.00;;;;;;;;;;5051295;28;20461;-72
2023/12/27 09:02:45;;;;;;;17.50;10.95;;;;;;;;;;5050824;28;20116;-72
2023/12/27 09:05:11;;;;;;;20.27;11.23;;;;;;;;;;5042448;28;20049;-72
2023/12/27 09:07:38;;;;;;;23.80;11.70;;;;;;;;;;5047967;28;20052;-72
2023/12/27 09:10:04;;;;;;;18.15;11.00;;;;;;;;;;5050237;28;20121;-72
2023/12/27 09:12:30;;;;;;;25.80;12.63;;;;;;;;;;5050616;28;20509;-72
2023/12/27 09:14:57;;;;;;;23.38;11.25;;;;;;;;;;5050970;28;20036;-72
2023/12/27 09:17:23;;;;;;;22.85;12.13;;;;;;;;;;5051258;28;20112;-72
2023/12/27 09:19:49;;;;;;;26.73;12.30;;;;;;;;;;5051581;28;20075;-72
2023/12/27 09:22:15;;;;;;;29.55;12.85;;;;;;;;;;5048593;28;20082;-72
2023/12/27 09:24:41;;;;;;;25.48;12.40;;;;;;;;;;5050176;28;20408;-72
2023/12/27 09:27:07;;;;;;;21.48;11.70;;;;;;;;;;5044444;28;20041;-72
2023/12/27 09:29:33;;;;;;;28.38;13.52;;;;;;;;;;5044096;28;20041;-73
2023/12/27 09:32:00;;;;;;;24.25;12.43;;;;;;;;;;5047683;28;20055;-72
2023/12/27 09:34:26;;;;;;;28.58;14.75;;;;;;;;;;5049301;28;20438;-72
2023/12/27 09:36:52;;;;;;;28.38;12.88;;;;;;;;;;5042305;28;20033;-72
2023/12/27 09:39:17;;;;;;;27.70;13.20;;;;;;;;;;5049422;28;20032;-73
2023/12/27 09:41:44;;;;;;;24.27;12.75;;;;;;;;;;5049900;28;20041;-72
2023/12/27 09:44:13;;;;;;;22.92;11.93;;;;;;;;;;5049492;28;20037;-72
2023/12/27 09:46:39;;;;;;;24.08;11.75;;;;;;;;;;5049401;28;20110;-72
2023/12/27 09:49:08;;;;;;;25.60;11.70;;;;;;;;;;5048954;28;20530;-72
2023/12/27 09:51:35;;;;;;;25.48;11.18;;;;;;;;;;5043484;28;20092;-72
2023/12/27 09:54:01;;;;;;;21.70;11.00;;;;;;;;;;5047025;28;20444;-72
2023/12/27 09:56:29;;;;;;;23.98;11.93;;;;;;;;;;5050169;28;20083;-73
2023/12/27 09:58:57;;;;;;;22.67;11.45;;;;;;;;;;5049722;28;20108;-72
2023/12/27 10:01:27;;;;;;;23.48;11.25;;;;;;;;;;5047849;28;20486;-72
2023/12/27 10:03:57;;;;;;;28.40;13.07;;;;;;;;;;5050039;28;20040;-72
2023/12/27 10:06:32;;;;;;;22.77;11.38;;;;;;;;;;5042069;28;20090;-72
2023/12/27 10:08:58;;;;;;;23.45;10.98;;;;;;;;;;5050896;28;20045;-73
2023/12/27 10:11:25;;;;;;;22.98;10.73;;;;;;;;;;5045367;28;20376;-73
2023/12/27 10:13:51;;;;;;;25.63;12.07;;;;;;;;;;5053411;28;20372;-73
2023/12/27 10:16:17;;;;;;;24.00;11.02;;;;;;;;;;5053068;28;20115;-72
2023/12/27 10:18:46;;;;;;;24.00;11.30;;;;;;;;;;5052614;28;20124;-71
2023/12/27 10:21:13;;;;;;;22.48;10.98;;;;;;;;;;5047932;28;20040;-71
2023/12/27 10:23:39;;;;;;;23.10;12.00;;;;;;;;;;5047250;28;20055;-71
2023/12/27 10:26:06;;;;;;;22.88;11.00;;;;;;;;;;5053043;28;20037;-71
2023/12/27 10:28:32;;;;;;;25.05;11.35;;;;;;;;;;5052280;28;20051;-72
2023/12/27 10:30:58;;;;;;;21.70;10.65;;;;;;;;;;5051566;28;20037;-72
2023/12/27 10:33:24;;;;;;;26.15;10.45;;;;;;;;;;5052768;28;20048;-72
2023/12/27 10:35:50;;;;;;;21.73;11.15;;;;;;;;;;5052585;28;20120;-72
2023/12/27 10:38:16;;;;;;;24.98;12.13;;;;;;;;;;5052406;28;20041;-72
2023/12/27 10:40:44;;;;;;;28.65;11.85;;;;;;;;;;5052403;28;20053;-72
2023/12/27 10:43:10;;;;;;;27.48;12.45;;;;;;;;;;5052464;28;20044;-71
2023/12/27 10:45:36;;;;;;;23.55;11.55;;;;;;;;;;5047335;28;20498;-72
2023/12/27 10:48:06;;;;;;;23.88;11.82;;;;;;;;;;5041908;28;20053;-72
2023/12/27 10:50:33;;;;;;;25.02;10.85;;;;;;;;;;5050424;28;20048;-72
2023/12/27 10:53:06;;;;;;;21.55;12.20;;;;;;;;;;5052109;28;20041;-72
2023/12/27 10:55:33;;;;;;;30.33;11.98;;;;;;;;;;5050783;28;20056;-72
2023/12/27 10:57:59;;;;;;;30.75;12.07;;;;;;;;;;5048946;28;20120;-72
2023/12/27 11:00:25;;;;;;;21.30;12.18;;;;;;;;;;5051609;28;20156;-72
2023/12/27 11:02:52;;;;;;;26.30;12.10;;;;;;;;;;5052459;28;20056;-72
2023/12/27 11:05:22;;;;;;;26.30;12.52;;;;;;;;;;5051595;28;20045;-72
2023/12/27 11:07:52;;;;;;;27.10;11.73;;;;;;;;;;5064080;22;20518;-66
2023/12/27 11:10:19;;;;;;;27.60;11.95;;;;;;;;;;5055152;28;20044;-66
2023/12/27 11:12:47;;;;;;;23.10;12.20;;;;;;;;;;5055343;28;20056;-66
2023/12/27 11:15:18;;;;;;;23.05;12.02;;;;;;;;;;5073135;28;20032;-66
2023/12/27 11:17:45;;;;;;;;;;;;;;;;;;5073447;28;20125;-66
2023/12/27 11:20:12;;;;;;;27.98;12.43;;;;;;;;;;5072577;28;19916;-66
2023/12/27 11:22:42;;;;;;;29.50;12.75;;;;;;;;;;5078989;28;20089;-66
2023/12/27 11:25:09;;;;;;;30.53;12.87;;;;;;;;;;5073429;28;20058;-66
2023/12/27 11:27:36;;;;;;;26.30;12.35;;;;;;;;;;5072632;28;20045;-66
2023/12/27 11:30:02;;;;;;;27.92;12.60;;;;;;;;;;5071529;28;20401;-66
2023/12/27 11:32:30;;;;;;;28.27;13.27;;;;;;;;;;5068465;28;20044;-68
2023/12/27 11:34:57;;;;;;;29.10;12.93;;;;;;;;;;5079487;22;20132;-68
2023/12/27 11:37:23;;;;;;;33.42;12.70;;;;;;;;;;5054809;28;20418;-69
2023/12/27 11:39:53;;;;;;;26.45;13.25;;;;;;;;;;5054825;28;20047;-69
2023/12/27 11:42:19;;;;;;;25.38;13.23;;;;;;;;;;5054688;28;20128;-68
2023/12/27 11:44:49;;;;;;;21.40;12.27;;;;;;;;;;5037905;28;20123;-68
2023/12/27 11:47:18;;;;;;;25.45;12.23;;;;;;;;;;5072600;28;20044;-68
2023/12/27 11:50:02;;;;;;;24.95;12.35;;;;;;;;;;5054314;28;20040;-69
2023/12/27 11:52:29;;;;;;;25.83;12.23;;;;;;;;;;5054847;28;20049;-68
2023/12/27 11:55:10;;;;;;;28.30;13.18;;;;;;;;;;5054558;28;20044;-68
2023/12/27 11:57:36;;;;;;;;;;;;;;;;;;5054586;28;20044;-68
2023/12/27 12:00:04;;;;;;;21.90;11.85;;;;;;;;;;5054302;28;20291;-69
2023/12/27 12:02:32;;;;;;;25.17;13.27;;;;;;;;;;5072518;28;20052;-69
2023/12/27 12:05:03;;;;;;;24.90;12.27;;;;;;;;;;5054174;28;20127;-69
2023/12/27 12:07:54;;;;;;;22.15;11.82;;;;;;;;;;5054060;28;20123;-68
2023/12/27 12:10:20;;;;;;;23.80;12.48;;;;;;;;;;5054480;28;20064;-68
2023/12/27 12:12:46;;;;;;;23.50;11.77;;;;;;;;;;5054256;28;20044;-68
2023/12/27 12:15:13;;;;;;;23.33;12.15;;;;;;;;;;5054378;28;20115;-69
2023/12/27 12:17:40;;;;;;;21.08;11.32;;;;;;;;;;5054042;28;20198;-69
2023/12/27 12:20:07;;;;;;;20.92;11.88;;;;;;;;;;5053518;28;20079;-68
2023/12/27 12:22:34;;;;;;;25.40;12.05;;;;;;;;;;5053779;28;20033;-68
2023/12/27 12:25:07;;;;;;;24.13;12.93;;;;;;;;;;5072036;28;20076;-69
2023/12/27 12:27:33;;;;;;;20.30;12.75;;;;;;;;;;5054384;28;20619;-69
2023/12/27 12:30:00;;;;;;;25.42;12.80;;;;;;;;;;5052758;28;20048;-69
2023/12/27 12:32:26;;;;;;;25.58;13.20;;;;;;;;;;5071509;28;20033;-68
2023/12/27 12:34:52;;;;;;;27.90;14.70;;;;;;;;;;5071627;28;20415;-67
2023/12/27 12:37:18;;;;;;;30.35;16.40;;;;;;;;;;5053447;28;20040;-67
2023/12/27 12:39:44;;;;;;;80.30;20.63;;;;;;;;;;5071582;28;20087;-68
2023/12/27 12:42:10;;;;;;;29.92;15.32;;;;;;;;;;5072088;28;20169;-69
2023/12/27 12:44:37;;;;;;;33.85;15.73;;;;;;;;;;5053141;28;20047;-68
2023/12/27 12:47:03;;;;;;;31.40;16.15;;;;;;;;;;5072048;28;20412;-69
2023/12/27 12:49:30;;;;;;;27.27;14.25;;;;;;;;;;5052738;28;20051;-69
2023/12/27 12:52:06;;;;;;;25.08;15.10;;;;;;;;;;5071842;28;20045;-68
2023/12/27 12:54:33;;;;;;;27.25;14.38;;;;;;;;;;5071992;28;20040;-69
2023/12/27 12:56:59;;;;;;;26.55;14.35;;;;;;;;;;5071246;28;20040;-69
2023/12/27 12:59:27;;;;;;;31.80;15.45;;;;;;;;;;5037135;28;20174;-69
2023/12/27 13:01:53;;;;;;;29.73;16.10;;;;;;;;;;5053540;28;20052;-68
2023/12/27 13:04:23;;;;;;;25.40;15.70;;;;;;;;;;5052485;28;20120;-68
2023/12/27 13:06:49;;;;;;;29.27;15.90;;;;;;;;;;5071923;28;20249;-68
2023/12/27 13:09:16;;;;;;;34.63;16.05;;;;;;;;;;5053643;28;20040;-69
2023/12/27 13:11:42;;;;;;;29.35;16.05;;;;;;;;;;5053405;28;20106;-68
2023/12/27 13:14:08;;;;;;;35.22;16.70;;;;;;;;;;5053551;28;20040;-69
2023/12/27 13:16:34;;;;;;;32.60;16.40;;;;;;;;;;5053613;28;20051;-69
2023/12/27 13:19:00;;;;;;;35.13;17.08;;;;;;;;;;5071263;28;20455;-68
2023/12/27 13:21:29;;;;;;;32.50;16.10;;;;;;;;;;5071054;28;20118;-68
2023/12/27 13:23:54;;;;;;;33.42;15.80;;;;;;;;;;5053320;28;20063;-69
2023/12/27 13:26:21;;;;;;;32.05;16.27;;;;;;;;;;5053444;28;20040;-69
2023/12/27 13:28:47;;;;;;;37.42;16.45;;;;;;;;;;5071091;28;20090;-69
2023/12/27 13:31:13;;;;;;;32.10;16.10;;;;;;;;;;5070892;28;20399;-69
2023/12/27 13:33:39;;;;;;;37.47;16.70;;;;;;;;;;5053091;28;20043;-69
2023/12/27 13:36:05;;;;;;;30.02;14.75;;;;;;;;;;5071412;28;20044;-69
2023/12/27 13:38:31;;;;;;;34.38;16.40;;;;;;;;;;5052681;28;20052;-68
2023/12/27 13:40:57;;;;;;;35.05;15.57;;;;;;;;;;5035723;28;20067;-69
2023/12/27 13:43:22;;;;;;;35.08;15.77;;;;;;;;;;5056346;28;20167;-69
2023/12/27 13:45:48;;;;;;;30.73;15.05;;;;;;;;;;5056839;28;20388;-69
2023/12/27 13:48:14;;;;;;;30.35;14.85;;;;;;;;;;5057354;28;20080;-69
2023/12/27 13:50:40;;;;;;;33.05;14.80;;;;;;;;;;5056446;28;20036;-69
2023/12/27 13:53:06;;;;;;;29.23;14.20;;;;;;;;;;5056605;28;20472;-68
2023/12/27 13:55:33;;;;;;;29.48;15.18;;;;;;;;;;5056344;28;20119;-68
2023/12/27 13:57:59;;;;;;;27.67;14.68;;;;;;;;;;5057184;28;20119;-68
2023/12/27 14:00:25;;;;;;;30.80;15.85;;;;;;;;;;5073676;28;20123;-69
2023/12/27 14:02:51;;;;;;;36.33;16.10;;;;;;;;;;5073652;28;20404;-67
2023/12/27 14:05:17;;;;;;;31.38;14.68;;;;;;;;;;5072610;28;20036;-67
2023/12/27 14:07:43;;;;;;;31.77;14.75;;;;;;;;;;5073538;28;20048;-68
2023/12/27 14:10:09;;;;;;;34.55;16.15;;;;;;;;;;5073252;28;20040;-69
2023/12/27 14:12:41;;;;;;;28.42;13.95;;;;;;;;;;5074161;28;20369;-69
2023/12/27 14:15:08;;;;;;;26.25;14.65;;;;;;;;;;5055518;28;20056;-69
2023/12/27 14:17:34;;;;;;;27.52;14.95;;;;;;;;;;5056556;28;20036;-69
2023/12/27 14:20:00;;;;;;;31.98;14.77;;;;;;;;;;5056518;28;20510;-69
2023/12/27 14:22:26;;;;;;;31.25;14.07;;;;;;;;;;5073882;28;20044;-68